sensor_id;sensor_type;location;lat;lon;timestamp;temperature;humidity
75769;DHT22;64379;48.888;8.330;2024-02-21T00:00:15;7.80;69.80
75769;DHT22;64379;48.888;8.330;2024-02-21T00:02:41;7.80;69.70
75769;DHT22;64379;48.888;8.330;2024-02-21T00:05:06;7.80;69.50
75769;DHT22;64379;48.888;8.330;2024-02-21T00:07:32;7.90;69.30
75769;DHT22;64379;48.888;8.330;2024-02-21T00:09:58;7.90;69.20
75769;DHT22;64379;48.888;8.330;2024-02-21T00:12:23;7.90;69.10
75769;DHT22;64379;48.888;8.330;2024-02-21T00:14:49;8.00;68.70
75769;DHT22;64379;48.888;8.330;2024-02-21T00:17:15;8.00;68.60
75769;DHT22;64379;48.888;8.330;2024-02-21T00:19:40;8.00;68.50
75769;DHT22;64379;48.888;8.330;2024-02-21T00:22:06;8.10;68.30
75769;DHT22;64379;48.888;8.330;2024-02-21T00:24:32;8.00;68.40
75769;DHT22;64379;48.888;8.330;2024-02-21T00:26:57;8.10;68.20
75769;DHT22;64379;48.888;8.330;2024-02-21T00:29:23;8.00;68.40
75769;DHT22;64379;48.888;8.330;2024-02-21T00:31:49;8.00;68.60
75769;DHT22;64379;48.888;8.330;2024-02-21T00:34:15;8.00;68.70
75769;DHT22;64379;48.888;8.330;2024-02-21T00:36:40;8.00;68.70
75769;DHT22;64379;48.888;8.330;2024-02-21T00:39:06;8.00;68.90
75769;DHT22;64379;48.888;8.330;2024-02-21T00:41:32;8.00;68.70
75769;DHT22;64379;48.888;8.330;2024-02-21T00:43:57;8.00;68.70
75769;DHT22;64379;48.888;8.330;2024-02-21T00:46:23;8.00;68.70
75769;DHT22;64379;48.888;8.330;2024-02-21T00:48:49;8.00;68.70
75769;DHT22;64379;48.888;8.330;2024-02-21T00:51:16;8.00;68.60
75769;DHT22;64379;48.888;8.330;2024-02-21T00:53:42;8.00;68.50
75769;DHT22;64379;48.888;8.330;2024-02-21T00:56:08;8.10;68.30
75769;DHT22;64379;48.888;8.330;2024-02-21T00:58:34;8.10;68.30
75769;DHT22;64379;48.888;8.330;2024-02-21T01:01:01;8.10;68.40
75769;DHT22;64379;48.888;8.330;2024-02-21T01:03:27;8.10;68.40
75769;DHT22;64379;48.888;8.330;2024-02-21T01:05:52;8.10;67.90
75769;DHT22;64379;48.888;8.330;2024-02-21T01:08:18;8.20;67.70
75769;DHT22;64379;48.888;8.330;2024-02-21T01:10:43;8.20;67.70
75769;DHT22;64379;48.888;8.330;2024-02-21T01:13:09;8.20;68.20
75769;DHT22;64379;48.888;8.330;2024-02-21T01:15:34;8.10;68.90
75769;DHT22;64379;48.888;8.330;2024-02-21T01:18:01;8.00;70.20
75769;DHT22;64379;48.888;8.330;2024-02-21T01:20:26;7.90;70.80
75769;DHT22;64379;48.888;8.330;2024-02-21T01:22:52;7.80;72.20
75769;DHT22;64379;48.888;8.330;2024-02-21T01:25:18;7.60;72.70
75769;DHT22;64379;48.888;8.330;2024-02-21T01:27:43;7.60;73.40
75769;DHT22;64379;48.888;8.330;2024-02-21T01:30:09;7.50;73.90
75769;DHT22;64379;48.888;8.330;2024-02-21T01:32:36;7.50;74.60
75769;DHT22;64379;48.888;8.330;2024-02-21T01:35:02;7.50;74.70
75769;DHT22;64379;48.888;8.330;2024-02-21T01:37:27;7.50;75.40
75769;DHT22;64379;48.888;8.330;2024-02-21T01:39:53;7.40;75.70
75769;DHT22;64379;48.888;8.330;2024-02-21T01:42:19;7.50;75.60
75769;DHT22;64379;48.888;8.330;2024-02-21T01:44:44;7.50;75.50
75769;DHT22;64379;48.888;8.330;2024-02-21T01:47:10;7.40;75.70
75769;DHT22;64379;48.888;8.330;2024-02-21T01:49:37;7.40;75.90
75769;DHT22;64379;48.888;8.330;2024-02-21T01:52:02;7.50;75.90
75769;DHT22;64379;48.888;8.330;2024-02-21T01:54:28;7.50;76.00
75769;DHT22;64379;48.888;8.330;2024-02-21T01:56:54;7.50;76.20
75769;DHT22;64379;48.888;8.330;2024-02-21T01:59:21;7.50;75.80
75769;DHT22;64379;48.888;8.330;2024-02-21T02:01:46;7.50;76.10
75769;DHT22;64379;48.888;8.330;2024-02-21T02:04:13;7.40;76.20
75769;DHT22;64379;48.888;8.330;2024-02-21T02:06:39;7.40;76.40
75769;DHT22;64379;48.888;8.330;2024-02-21T02:09:05;7.40;75.90
75769;DHT22;64379;48.888;8.330;2024-02-21T02:11:32;7.40;75.80
75769;DHT22;64379;48.888;8.330;2024-02-21T02:13:57;7.40;76.00
75769;DHT22;64379;48.888;8.330;2024-02-21T02:16:23;7.30;76.00
75769;DHT22;64379;48.888;8.330;2024-02-21T02:18:48;7.30;76.20
75769;DHT22;64379;48.888;8.330;2024-02-21T02:21:27;7.20;76.30
75769;DHT22;64379;48.888;8.330;2024-02-21T02:23:54;7.20;76.50
75769;DHT22;64379;48.888;8.330;2024-02-21T02:26:20;7.10;76.70
75769;DHT22;64379;48.888;8.330;2024-02-21T02:28:46;7.10;76.70
75769;DHT22;64379;48.888;8.330;2024-02-21T02:31:11;7.10;76.70
75769;DHT22;64379;48.888;8.330;2024-02-21T02:33:37;7.10;76.50
75769;DHT22;64379;48.888;8.330;2024-02-21T02:36:03;7.00;76.60
75769;DHT22;64379;48.888;8.330;2024-02-21T02:38:28;7.00;76.40
75769;DHT22;64379;48.888;8.330;2024-02-21T02:40:54;7.00;76.00
75769;DHT22;64379;48.888;8.330;2024-02-21T02:43:19;7.00;75.90
75769;DHT22;64379;48.888;8.330;2024-02-21T02:45:45;7.00;75.80
75769;DHT22;64379;48.888;8.330;2024-02-21T02:48:10;7.00;75.50
75769;DHT22;64379;48.888;8.330;2024-02-21T02:50:36;7.00;75.20
75769;DHT22;64379;48.888;8.330;2024-02-21T02:53:02;7.00;75.10
75769;DHT22;64379;48.888;8.330;2024-02-21T02:55:27;7.00;75.20
75769;DHT22;64379;48.888;8.330;2024-02-21T02:57:53;7.00;75.20
75769;DHT22;64379;48.888;8.330;2024-02-21T03:00:19;7.00;75.50
75769;DHT22;64379;48.888;8.330;2024-02-21T03:02:46;7.00;75.60
75769;DHT22;64379;48.888;8.330;2024-02-21T03:05:21;7.00;75.10
75769;DHT22;64379;48.888;8.330;2024-02-21T03:07:48;7.00;74.70
75769;DHT22;64379;48.888;8.330;2024-02-21T03:10:14;7.00;74.50
75769;DHT22;64379;48.888;8.330;2024-02-21T03:12:42;7.00;74.20
75769;DHT22;64379;48.888;8.330;2024-02-21T03:15:08;7.00;74.10
75769;DHT22;64379;48.888;8.330;2024-02-21T03:17:34;7.00;74.00
75769;DHT22;64379;48.888;8.330;2024-02-21T03:20:00;7.00;74.20
75769;DHT22;64379;48.888;8.330;2024-02-21T03:22:26;7.00;74.40
75769;DHT22;64379;48.888;8.330;2024-02-21T03:24:52;6.90;74.80
75769;DHT22;64379;48.888;8.330;2024-02-21T03:27:18;6.80;75.40
75769;DHT22;64379;48.888;8.330;2024-02-21T03:29:43;6.70;75.90
75769;DHT22;64379;48.888;8.330;2024-02-21T03:32:09;6.60;76.40
75769;DHT22;64379;48.888;8.330;2024-02-21T03:34:35;6.60;76.70
75769;DHT22;64379;48.888;8.330;2024-02-21T03:37:00;6.50;77.00
75769;DHT22;64379;48.888;8.330;2024-02-21T03:39:26;6.50;77.30
75769;DHT22;64379;48.888;8.330;2024-02-21T03:41:51;6.40;77.50
75769;DHT22;64379;48.888;8.330;2024-02-21T03:44:17;6.40;77.70
75769;DHT22;64379;48.888;8.330;2024-02-21T03:46:43;6.40;77.50
75769;DHT22;64379;48.888;8.330;2024-02-21T03:49:08;6.40;77.50
75769;DHT22;64379;48.888;8.330;2024-02-21T03:51:34;6.30;77.30
75769;DHT22;64379;48.888;8.330;2024-02-21T03:53:59;6.30;77.60
75769;DHT22;64379;48.888;8.330;2024-02-21T03:56:25;6.30;77.70
75769;DHT22;64379;48.888;8.330;2024-02-21T03:58:50;6.20;77.90
75769;DHT22;64379;48.888;8.330;2024-02-21T04:01:16;6.20;78.00
75769;DHT22;64379;48.888;8.330;2024-02-21T04:03:43;6.10;78.40
75769;DHT22;64379;48.888;8.330;2024-02-21T04:06:09;6.10;78.80
75769;DHT22;64379;48.888;8.330;2024-02-21T04:08:35;6.00;79.20
75769;DHT22;64379;48.888;8.330;2024-02-21T04:11:01;5.90;79.30
75769;DHT22;64379;48.888;8.330;2024-02-21T04:13:26;6.00;79.50
75769;DHT22;64379;48.888;8.330;2024-02-21T04:15:52;5.90;79.50
75769;DHT22;64379;48.888;8.330;2024-02-21T04:18:17;5.90;79.60
75769;DHT22;64379;48.888;8.330;2024-02-21T04:20:43;5.90;79.70
75769;DHT22;64379;48.888;8.330;2024-02-21T04:23:09;5.80;79.80
75769;DHT22;64379;48.888;8.330;2024-02-21T04:25:34;5.70;80.10
75769;DHT22;64379;48.888;8.330;2024-02-21T04:28:00;5.70;80.30
75769;DHT22;64379;48.888;8.330;2024-02-21T04:30:26;5.60;80.70
75769;DHT22;64379;48.888;8.330;2024-02-21T04:32:51;5.50;80.80
75769;DHT22;64379;48.888;8.330;2024-02-21T04:35:17;5.40;81.00
75769;DHT22;64379;48.888;8.330;2024-02-21T04:37:42;5.30;81.20
75769;DHT22;64379;48.888;8.330;2024-02-21T04:40:08;5.30;81.40
75769;DHT22;64379;48.888;8.330;2024-02-21T04:42:34;5.20;81.70
75769;DHT22;64379;48.888;8.330;2024-02-21T04:45:00;5.10;82.00
75769;DHT22;64379;48.888;8.330;2024-02-21T04:47:26;5.10;82.30
75769;DHT22;64379;48.888;8.330;2024-02-21T04:49:52;5.00;82.40
75769;DHT22;64379;48.888;8.330;2024-02-21T04:52:17;5.00;82.40
75769;DHT22;64379;48.888;8.330;2024-02-21T04:54:43;5.00;82.50
75769;DHT22;64379;48.888;8.330;2024-02-21T04:57:08;4.90;82.70
75769;DHT22;64379;48.888;8.330;2024-02-21T04:59:35;4.90;83.00
75769;DHT22;64379;48.888;8.330;2024-02-21T05:02:01;4.80;83.30
75769;DHT22;64379;48.888;8.330;2024-02-21T05:04:27;4.80;83.40
75769;DHT22;64379;48.888;8.330;2024-02-21T05:06:53;4.70;83.60
75769;DHT22;64379;48.888;8.330;2024-02-21T05:09:18;4.70;83.80
75769;DHT22;64379;48.888;8.330;2024-02-21T05:11:44;4.70;84.00
75769;DHT22;64379;48.888;8.330;2024-02-21T05:14:09;4.60;84.00
75769;DHT22;64379;48.888;8.330;2024-02-21T05:16:35;4.50;84.20
75769;DHT22;64379;48.888;8.330;2024-02-21T05:19:00;4.50;84.50
75769;DHT22;64379;48.888;8.330;2024-02-21T05:21:26;4.60;84.70
75769;DHT22;64379;48.888;8.330;2024-02-21T05:23:53;4.70;84.60
75769;DHT22;64379;48.888;8.330;2024-02-21T05:26:23;4.70;84.40
75769;DHT22;64379;48.888;8.330;2024-02-21T05:28:49;4.60;84.30
75769;DHT22;64379;48.888;8.330;2024-02-21T05:31:16;4.60;84.10
75769;DHT22;64379;48.888;8.330;2024-02-21T05:33:42;4.50;84.10
75769;DHT22;64379;48.888;8.330;2024-02-21T05:36:08;4.50;84.10
75769;DHT22;64379;48.888;8.330;2024-02-21T05:38:33;4.50;84.20
75769;DHT22;64379;48.888;8.330;2024-02-21T05:41:00;4.50;84.50
75769;DHT22;64379;48.888;8.330;2024-02-21T05:43:25;4.50;85.20
75769;DHT22;64379;48.888;8.330;2024-02-21T05:45:51;4.60;84.90
75769;DHT22;64379;48.888;8.330;2024-02-21T05:48:16;4.70;84.60
75769;DHT22;64379;48.888;8.330;2024-02-21T05:50:42;4.60;84.60
75769;DHT22;64379;48.888;8.330;2024-02-21T05:53:08;4.70;84.50
75769;DHT22;64379;48.888;8.330;2024-02-21T05:55:33;4.70;84.40
75769;DHT22;64379;48.888;8.330;2024-02-21T05:58:00;4.50;84.20
75769;DHT22;64379;48.888;8.330;2024-02-21T06:00:25;4.50;84.20
75769;DHT22;64379;48.888;8.330;2024-02-21T06:02:51;4.50;84.30
75769;DHT22;64379;48.888;8.330;2024-02-21T06:05:17;4.50;84.20
75769;DHT22;64379;48.888;8.330;2024-02-21T06:07:42;4.50;84.30
75769;DHT22;64379;48.888;8.330;2024-02-21T06:10:08;4.50;84.30
75769;DHT22;64379;48.888;8.330;2024-02-21T06:12:34;4.40;84.60
75769;DHT22;64379;48.888;8.330;2024-02-21T06:15:00;4.40;84.70
75769;DHT22;64379;48.888;8.330;2024-02-21T06:17:25;4.40;84.70
75769;DHT22;64379;48.888;8.330;2024-02-21T06:19:51;4.40;84.80
75769;DHT22;64379;48.888;8.330;2024-02-21T06:22:16;4.30;85.00
75769;DHT22;64379;48.888;8.330;2024-02-21T06:24:43;4.30;85.00
75769;DHT22;64379;48.888;8.330;2024-02-21T06:27:09;4.40;85.00
75769;DHT22;64379;48.888;8.330;2024-02-21T06:29:34;4.40;84.80
75769;DHT22;64379;48.888;8.330;2024-02-21T06:32:01;4.40;84.60
75769;DHT22;64379;48.888;8.330;2024-02-21T06:34:27;4.40;84.50
75769;DHT22;64379;48.888;8.330;2024-02-21T06:36:52;4.40;84.50
75769;DHT22;64379;48.888;8.330;2024-02-21T06:39:18;4.40;84.50
75769;DHT22;64379;48.888;8.330;2024-02-21T06:41:43;4.40;84.50
75769;DHT22;64379;48.888;8.330;2024-02-21T06:44:09;4.50;84.40
75769;DHT22;64379;48.888;8.330;2024-02-21T06:46:35;4.50;84.30
75769;DHT22;64379;48.888;8.330;2024-02-21T06:49:01;4.60;84.10
75769;DHT22;64379;48.888;8.330;2024-02-21T06:51:28;4.70;84.00
75769;DHT22;64379;48.888;8.330;2024-02-21T06:53:55;4.80;83.70
75769;DHT22;64379;48.888;8.330;2024-02-21T06:56:22;4.90;83.20
75769;DHT22;64379;48.888;8.330;2024-02-21T06:58:52;5.00;82.80
75769;DHT22;64379;48.888;8.330;2024-02-21T07:01:17;5.00;82.30
75769;DHT22;64379;48.888;8.330;2024-02-21T07:03:43;5.10;81.90
75769;DHT22;64379;48.888;8.330;2024-02-21T07:06:09;5.20;81.50
75769;DHT22;64379;48.888;8.330;2024-02-21T07:08:34;5.30;81.30
75769;DHT22;64379;48.888;8.330;2024-02-21T07:11:00;5.30;81.10
75769;DHT22;64379;48.888;8.330;2024-02-21T07:13:25;5.40;80.90
75769;DHT22;64379;48.888;8.330;2024-02-21T07:15:51;5.50;80.70
75769;DHT22;64379;48.888;8.330;2024-02-21T07:18:17;5.60;80.30
75769;DHT22;64379;48.888;8.330;2024-02-21T07:20:42;5.80;79.60
75769;DHT22;64379;48.888;8.330;2024-02-21T07:23:08;5.90;79.00
75769;DHT22;64379;48.888;8.330;2024-02-21T07:25:34;6.10;78.70
75769;DHT22;64379;48.888;8.330;2024-02-21T07:28:00;6.30;77.90
75769;DHT22;64379;48.888;8.330;2024-02-21T07:30:25;6.40;77.00
75769;DHT22;64379;48.888;8.330;2024-02-21T07:32:51;6.60;76.80
75769;DHT22;64379;48.888;8.330;2024-02-21T07:35:19;6.80;76.10
75769;DHT22;64379;48.888;8.330;2024-02-21T07:37:45;7.00;75.50
75769;DHT22;64379;48.888;8.330;2024-02-21T07:40:14;7.20;74.30
75769;DHT22;64379;48.888;8.330;2024-02-21T07:42:41;6.80;74.80
75769;DHT22;64379;48.888;8.330;2024-02-21T07:45:09;6.50;76.10
75769;DHT22;64379;48.888;8.330;2024-02-21T07:47:36;6.50;77.10
75769;DHT22;64379;48.888;8.330;2024-02-21T07:50:03;6.40;77.40
75769;DHT22;64379;48.888;8.330;2024-02-21T07:52:28;6.10;78.10
75769;DHT22;64379;48.888;8.330;2024-02-21T07:54:54;5.80;79.40
75769;DHT22;64379;48.888;8.330;2024-02-21T07:57:20;6.00;80.10
75769;DHT22;64379;48.888;8.330;2024-02-21T07:59:45;6.20;79.40
75769;DHT22;64379;48.888;8.330;2024-02-21T08:02:13;6.40;78.60
75769;DHT22;64379;48.888;8.330;2024-02-21T08:04:39;6.50;78.40
75769;DHT22;64379;48.888;8.330;2024-02-21T08:07:05;6.80;78.10
75769;DHT22;64379;48.888;8.330;2024-02-21T08:09:30;7.00;77.80
75769;DHT22;64379;48.888;8.330;2024-02-21T08:11:56;7.10;76.90
75769;DHT22;64379;48.888;8.330;2024-02-21T08:14:22;7.00;77.20
75769;DHT22;64379;48.888;8.330;2024-02-21T08:16:48;7.10;77.60
75769;DHT22;64379;48.888;8.330;2024-02-21T08:19:13;7.10;77.70
75769;DHT22;64379;48.888;8.330;2024-02-21T08:21:39;7.30;77.30
75769;DHT22;64379;48.888;8.330;2024-02-21T08:24:05;7.40;76.90
75769;DHT22;64379;48.888;8.330;2024-02-21T08:26:30;7.70;75.20
75769;DHT22;64379;48.888;8.330;2024-02-21T08:28:59;7.80;73.00
75769;DHT22;64379;48.888;8.330;2024-02-21T08:31:26;7.90;71.50
75769;DHT22;64379;48.888;8.330;2024-02-21T08:34:00;7.80;71.50
75769;DHT22;64379;48.888;8.330;2024-02-21T08:36:32;7.80;71.70
75769;DHT22;64379;48.888;8.330;2024-02-21T08:38:58;7.80;72.10
75769;DHT22;64379;48.888;8.330;2024-02-21T08:41:25;7.90;71.40
75769;DHT22;64379;48.888;8.330;2024-02-21T08:43:54;7.70;71.80
75769;DHT22;64379;48.888;8.330;2024-02-21T08:46:23;7.90;71.40
75769;DHT22;64379;48.888;8.330;2024-02-21T08:48:50;7.80;71.30
75769;DHT22;64379;48.888;8.330;2024-02-21T08:51:19;7.90;71.40
75769;DHT22;64379;48.888;8.330;2024-02-21T08:53:46;7.80;71.50
75769;DHT22;64379;48.888;8.330;2024-02-21T08:56:12;7.90;71.40
75769;DHT22;64379;48.888;8.330;2024-02-21T08:58:39;8.00;71.10
75769;DHT22;64379;48.888;8.330;2024-02-21T09:01:05;8.10;69.90
75769;DHT22;64379;48.888;8.330;2024-02-21T09:03:32;8.10;70.60
75769;DHT22;64379;48.888;8.330;2024-02-21T09:05:59;8.20;70.40
75769;DHT22;64379;48.888;8.330;2024-02-21T09:08:25;8.20;70.60
75769;DHT22;64379;48.888;8.330;2024-02-21T09:10:51;8.60;69.90
75769;DHT22;64379;48.888;8.330;2024-02-21T09:13:16;8.60;69.20
75769;DHT22;64379;48.888;8.330;2024-02-21T09:15:43;8.90;68.70
75769;DHT22;64379;48.888;8.330;2024-02-21T09:18:08;8.80;68.40
75769;DHT22;64379;48.888;8.330;2024-02-21T09:20:34;8.60;68.60
75769;DHT22;64379;48.888;8.330;2024-02-21T09:23:00;9.10;68.50
75769;DHT22;64379;48.888;8.330;2024-02-21T09:25:25;9.50;67.00
75769;DHT22;64379;48.888;8.330;2024-02-21T09:27:53;9.60;65.90
75769;DHT22;64379;48.888;8.330;2024-02-21T09:30:19;9.20;67.10
75769;DHT22;64379;48.888;8.330;2024-02-21T09:32:44;9.40;66.40
75769;DHT22;64379;48.888;8.330;2024-02-21T09:35:10;9.60;66.40
75769;DHT22;64379;48.888;8.330;2024-02-21T09:37:38;9.70;66.10
75769;DHT22;64379;48.888;8.330;2024-02-21T09:40:04;10.00;66.70
75769;DHT22;64379;48.888;8.330;2024-02-21T09:42:38;10.10;64.40
75769;DHT22;64379;48.888;8.330;2024-02-21T09:45:23;10.00;65.00
75769;DHT22;64379;48.888;8.330;2024-02-21T09:50:40;9.70;64.80
75769;DHT22;64379;48.888;8.330;2024-02-21T09:53:11;9.60;65.40
75769;DHT22;64379;48.888;8.330;2024-02-21T09:55:38;9.60;64.80
75769;DHT22;64379;48.888;8.330;2024-02-21T09:58:06;9.50;65.80
75769;DHT22;64379;48.888;8.330;2024-02-21T10:00:32;9.50;65.40
75769;DHT22;64379;48.888;8.330;2024-02-21T10:02:59;9.50;66.60
75769;DHT22;64379;48.888;8.330;2024-02-21T10:05:24;9.70;66.50
75769;DHT22;64379;48.888;8.330;2024-02-21T10:07:51;10.00;65.70
75769;DHT22;64379;48.888;8.330;2024-02-21T10:10:17;10.10;65.00
75769;DHT22;64379;48.888;8.330;2024-02-21T10:12:50;10.20;64.70
75769;DHT22;64379;48.888;8.330;2024-02-21T10:15:20;10.20;64.50
75769;DHT22;64379;48.888;8.330;2024-02-21T10:17:46;10.10;64.30
75769;DHT22;64379;48.888;8.330;2024-02-21T10:20:11;10.20;65.40
75769;DHT22;64379;48.888;8.330;2024-02-21T10:22:38;10.30;64.60
75769;DHT22;64379;48.888;8.330;2024-02-21T10:25:12;10.30;64.40
75769;DHT22;64379;48.888;8.330;2024-02-21T10:27:39;10.40;63.80
75769;DHT22;64379;48.888;8.330;2024-02-21T10:30:13;10.30;63.30
75769;DHT22;64379;48.888;8.330;2024-02-21T10:32:51;10.40;63.00
75769;DHT22;64379;48.888;8.330;2024-02-21T10:35:32;10.70;62.70
75769;DHT22;64379;48.888;8.330;2024-02-21T10:37:58;10.60;61.00
75769;DHT22;64379;48.888;8.330;2024-02-21T10:40:28;10.20;61.80
75769;DHT22;64379;48.888;8.330;2024-02-21T10:43:02;10.20;61.30
75769;DHT22;64379;48.888;8.330;2024-02-21T10:45:30;10.10;62.40
75769;DHT22;64379;48.888;8.330;2024-02-21T10:48:08;10.40;62.40
75769;DHT22;64379;48.888;8.330;2024-02-21T10:50:57;10.60;61.30
75769;DHT22;64379;48.888;8.330;2024-02-21T10:56:22;10.70;61.10
75769;DHT22;64379;48.888;8.330;2024-02-21T10:58:50;10.80;60.20
75769;DHT22;64379;48.888;8.330;2024-02-21T11:01:18;10.90;60.00
75769;DHT22;64379;48.888;8.330;2024-02-21T11:03:45;11.00;60.00
75769;DHT22;64379;48.888;8.330;2024-02-21T11:06:13;11.10;59.10
75769;DHT22;64379;48.888;8.330;2024-02-21T11:08:39;11.30;59.10
75769;DHT22;64379;48.888;8.330;2024-02-21T11:11:05;11.30;58.70
75769;DHT22;64379;48.888;8.330;2024-02-21T11:13:40;11.50;58.90
75769;DHT22;64379;48.888;8.330;2024-02-21T11:16:10;11.50;58.00
75769;DHT22;64379;48.888;8.330;2024-02-21T11:18:39;11.50;58.30
75769;DHT22;64379;48.888;8.330;2024-02-21T11:21:04;11.60;57.20
75769;DHT22;64379;48.888;8.330;2024-02-21T11:23:31;11.50;57.10
75769;DHT22;64379;48.888;8.330;2024-02-21T11:26:09;11.50;57.20
75769;DHT22;64379;48.888;8.330;2024-02-21T11:28:35;11.50;57.70
75769;DHT22;64379;48.888;8.330;2024-02-21T11:31:10;11.50;57.10
75769;DHT22;64379;48.888;8.330;2024-02-21T11:33:39;11.50;57.30
75769;DHT22;64379;48.888;8.330;2024-02-21T11:36:05;11.50;56.20
75769;DHT22;64379;48.888;8.330;2024-02-21T11:38:31;11.40;57.10
75769;DHT22;64379;48.888;8.330;2024-02-21T11:40:57;11.50;56.50
75769;DHT22;64379;48.888;8.330;2024-02-21T11:43:23;11.60;56.80
75769;DHT22;64379;48.888;8.330;2024-02-21T11:45:49;11.70;55.30
75769;DHT22;64379;48.888;8.330;2024-02-21T11:48:15;11.70;56.10
75769;DHT22;64379;48.888;8.330;2024-02-21T11:50:40;11.70;55.60
75769;DHT22;64379;48.888;8.330;2024-02-21T11:53:06;11.60;56.40
75769;DHT22;64379;48.888;8.330;2024-02-21T11:55:31;11.80;56.00
75769;DHT22;64379;48.888;8.330;2024-02-21T11:57:57;11.70;55.00
75769;DHT22;64379;48.888;8.330;2024-02-21T12:00:23;11.50;55.90
75769;DHT22;64379;48.888;8.330;2024-02-21T12:02:51;11.70;55.70
75769;DHT22;64379;48.888;8.330;2024-02-21T12:05:19;11.80;55.00
75769;DHT22;64379;48.888;8.330;2024-02-21T12:07:45;11.70;55.00
75769;DHT22;64379;48.888;8.330;2024-02-21T12:10:11;11.90;55.50
75769;DHT22;64379;48.888;8.330;2024-02-21T12:12:38;12.20;55.60
75769;DHT22;64379;48.888;8.330;2024-02-21T12:15:05;12.00;54.20
75769;DHT22;64379;48.888;8.330;2024-02-21T12:17:34;11.90;54.50
75769;DHT22;64379;48.888;8.330;2024-02-21T12:20:03;11.90;54.30
75769;DHT22;64379;48.888;8.330;2024-02-21T12:22:31;11.90;54.70
75769;DHT22;64379;48.888;8.330;2024-02-21T12:24:58;11.90;55.00
75769;DHT22;64379;48.888;8.330;2024-02-21T12:27:24;12.00;54.60
75769;DHT22;64379;48.888;8.330;2024-02-21T12:29:50;12.00;54.30
75769;DHT22;64379;48.888;8.330;2024-02-21T12:32:16;12.00;55.00
75769;DHT22;64379;48.888;8.330;2024-02-21T12:34:42;12.20;54.80
75769;DHT22;64379;48.888;8.330;2024-02-21T12:37:07;12.10;54.50
75769;DHT22;64379;48.888;8.330;2024-02-21T12:39:33;12.30;54.40
75769;DHT22;64379;48.888;8.330;2024-02-21T12:41:59;12.50;53.50
75769;DHT22;64379;48.888;8.330;2024-02-21T12:44:25;12.50;54.10
75769;DHT22;64379;48.888;8.330;2024-02-21T12:46:50;12.60;55.30
75769;DHT22;64379;48.888;8.330;2024-02-21T12:49:19;12.60;54.20
75769;DHT22;64379;48.888;8.330;2024-02-21T12:51:44;12.70;53.70
75769;DHT22;64379;48.888;8.330;2024-02-21T12:54:12;12.70;54.80
75769;DHT22;64379;48.888;8.330;2024-02-21T12:56:38;12.60;54.70
75769;DHT22;64379;48.888;8.330;2024-02-21T12:59:05;12.70;54.60
75769;DHT22;64379;48.888;8.330;2024-02-21T13:01:30;12.80;54.10
75769;DHT22;64379;48.888;8.330;2024-02-21T13:03:56;12.30;54.40
75769;DHT22;64379;48.888;8.330;2024-02-21T13:06:23;12.50;54.30
75769;DHT22;64379;48.888;8.330;2024-02-21T13:08:49;12.20;54.10
75769;DHT22;64379;48.888;8.330;2024-02-21T13:11:16;12.20;55.80
75769;DHT22;64379;48.888;8.330;2024-02-21T13:13:42;12.20;55.00
75769;DHT22;64379;48.888;8.330;2024-02-21T13:16:07;12.50;53.90
75769;DHT22;64379;48.888;8.330;2024-02-21T13:18:35;12.40;54.20
75769;DHT22;64379;48.888;8.330;2024-02-21T13:21:04;12.20;55.30
75769;DHT22;64379;48.888;8.330;2024-02-21T13:23:29;12.30;54.90
75769;DHT22;64379;48.888;8.330;2024-02-21T13:25:55;12.20;54.30
75769;DHT22;64379;48.888;8.330;2024-02-21T13:28:20;12.00;55.70
75769;DHT22;64379;48.888;8.330;2024-02-21T13:30:46;12.00;55.50
75769;DHT22;64379;48.888;8.330;2024-02-21T13:33:11;12.10;55.60
75769;DHT22;64379;48.888;8.330;2024-02-21T13:35:37;12.10;55.50
75769;DHT22;64379;48.888;8.330;2024-02-21T13:38:04;12.00;55.90
75769;DHT22;64379;48.888;8.330;2024-02-21T13:40:29;12.00;55.60
75769;DHT22;64379;48.888;8.330;2024-02-21T13:42:58;11.90;56.90
75769;DHT22;64379;48.888;8.330;2024-02-21T13:45:24;11.70;56.80
75769;DHT22;64379;48.888;8.330;2024-02-21T13:47:49;11.80;56.80
75769;DHT22;64379;48.888;8.330;2024-02-21T13:50:15;11.90;56.40
75769;DHT22;64379;48.888;8.330;2024-02-21T13:52:41;12.00;56.20
75769;DHT22;64379;48.888;8.330;2024-02-21T13:55:07;12.00;56.70
75769;DHT22;64379;48.888;8.330;2024-02-21T13:57:37;12.20;56.40
75769;DHT22;64379;48.888;8.330;2024-02-21T14:00:06;12.20;56.60
75769;DHT22;64379;48.888;8.330;2024-02-21T14:02:36;12.20;56.50
75769;DHT22;64379;48.888;8.330;2024-02-21T14:05:02;12.00;56.70
75769;DHT22;64379;48.888;8.330;2024-02-21T14:07:30;12.00;56.60
75769;DHT22;64379;48.888;8.330;2024-02-21T14:09:55;11.90;56.50
75769;DHT22;64379;48.888;8.330;2024-02-21T14:12:21;11.90;57.60
75769;DHT22;64379;48.888;8.330;2024-02-21T14:14:47;11.80;56.20
75769;DHT22;64379;48.888;8.330;2024-02-21T14:17:12;11.70;56.80
75769;DHT22;64379;48.888;8.330;2024-02-21T14:19:38;11.70;57.00
75769;DHT22;64379;48.888;8.330;2024-02-21T14:22:04;11.70;57.30
75769;DHT22;64379;48.888;8.330;2024-02-21T14:24:29;11.70;57.50
75769;DHT22;64379;48.888;8.330;2024-02-21T14:26:55;11.70;57.10
75769;DHT22;64379;48.888;8.330;2024-02-21T14:29:21;11.80;57.20
75769;DHT22;64379;48.888;8.330;2024-02-21T14:31:47;11.90;57.30
75769;DHT22;64379;48.888;8.330;2024-02-21T14:34:13;12.00;57.00
75769;DHT22;64379;48.888;8.330;2024-02-21T14:36:38;12.20;56.50
75769;DHT22;64379;48.888;8.330;2024-02-21T14:39:06;12.20;56.90
75769;DHT22;64379;48.888;8.330;2024-02-21T14:41:31;12.30;56.20
75769;DHT22;64379;48.888;8.330;2024-02-21T14:43:57;12.10;56.20
75769;DHT22;64379;48.888;8.330;2024-02-21T14:46:25;12.10;56.40
75769;DHT22;64379;48.888;8.330;2024-02-21T14:48:56;12.20;56.90
75769;DHT22;64379;48.888;8.330;2024-02-21T14:51:22;12.30;56.30
75769;DHT22;64379;48.888;8.330;2024-02-21T14:53:48;12.30;55.90
75769;DHT22;64379;48.888;8.330;2024-02-21T14:56:16;12.10;55.90
75769;DHT22;64379;48.888;8.330;2024-02-21T14:58:43;12.00;56.40
75769;DHT22;64379;48.888;8.330;2024-02-21T15:01:09;11.90;56.50
75769;DHT22;64379;48.888;8.330;2024-02-21T15:03:35;12.00;57.60
75769;DHT22;64379;48.888;8.330;2024-02-21T15:06:01;11.90;56.70
75769;DHT22;64379;48.888;8.330;2024-02-21T15:08:27;11.90;56.80
75769;DHT22;64379;48.888;8.330;2024-02-21T15:10:53;11.90;56.90
75769;DHT22;64379;48.888;8.330;2024-02-21T15:13:19;11.90;57.60
75769;DHT22;64379;48.888;8.330;2024-02-21T15:15:47;11.90;56.70
75769;DHT22;64379;48.888;8.330;2024-02-21T15:18:14;11.90;57.30
75769;DHT22;64379;48.888;8.330;2024-02-21T15:20:40;11.90;56.50
75769;DHT22;64379;48.888;8.330;2024-02-21T15:23:06;11.80;56.90
75769;DHT22;64379;48.888;8.330;2024-02-21T15:25:32;11.70;57.00
75769;DHT22;64379;48.888;8.330;2024-02-21T15:27:57;11.60;57.50
75769;DHT22;64379;48.888;8.330;2024-02-21T15:30:24;11.50;58.10
75769;DHT22;64379;48.888;8.330;2024-02-21T15:32:50;11.60;58.00
75769;DHT22;64379;48.888;8.330;2024-02-21T15:35:16;11.50;58.00
75769;DHT22;64379;48.888;8.330;2024-02-21T15:37:41;11.50;58.10
75769;DHT22;64379;48.888;8.330;2024-02-21T15:40:07;11.50;58.40